Tadoussac, Canada
Current Conditions -  °F | °C
As of 2:00 PM on Thursday 30 Oct 2014 (Local Time) from CYBG Reporting Station
Broken Clouds Broken Clouds  
Wind Chill: 35°   Ceiling: 3000
Heat Index: 43°   Visibility: 25mi
Dew Point: 34°   Wind: 16mph
Humidity: 70%   Direction: 290°WNW
Pressure: 29.87"   Gusts: NA
Location:  48.15°N, 69.72°W
Report Text: CYBG 301800Z 29014KT 25SM BKN030 BKN060 06/01 A2987 RMK SC5SC2 SLP122
Loading
Personal Weather Stations






























Interactive Weather Map
Tropical Storm Tracking
New forecast layout! Learn more

10-Day Weather Forecast

Advertisements
Track Severe Weather on mobile